createdAt,value
2018-08-08T00:00:29.795Z,28.96
2018-08-08T00:01:10.252Z,29.06
2018-08-08T00:01:50.745Z,29.09
2018-08-08T00:02:31.312Z,29.04
2018-08-08T00:03:11.799Z,28.95
2018-08-08T00:03:52.347Z,28.86
2018-08-08T00:04:32.822Z,28.92
2018-08-08T00:05:13.341Z,28.92
2018-08-08T00:05:53.853Z,28.98
2018-08-08T00:06:34.379Z,28.89
2018-08-08T00:07:14.886Z,28.9
2018-08-08T00:07:55.352Z,28.92
2018-08-08T00:08:35.861Z,28.93
2018-08-08T00:09:16.348Z,28.89
2018-08-08T00:09:56.831Z,28.95
2018-08-08T00:10:37.398Z,28.95
2018-08-08T00:11:17.857Z,28.86
2018-08-08T00:11:58.361Z,28.85
2018-08-08T00:12:38.829Z,29.08
2018-08-08T00:13:19.360Z,28.95
2018-08-08T00:13:59.828Z,28.88
2018-08-08T00:14:40.349Z,28.92
2018-08-08T00:15:20.878Z,28.95
2018-08-08T00:16:01.381Z,28.98
2018-08-08T00:16:41.928Z,29.05
2018-08-08T00:17:22.474Z,28.9
2018-08-08T00:18:02.969Z,28.88
2018-08-08T00:18:43.452Z,28.93
2018-08-08T00:19:23.937Z,28.95
2018-08-08T00:20:04.466Z,29.06
2018-08-08T00:20:44.975Z,29.02
2018-08-08T00:21:25.429Z,28.92
2018-08-08T00:22:05.926Z,28.96
2018-08-08T00:22:46.411Z,28.92
2018-08-08T00:23:26.917Z,29.05
2018-08-08T00:24:07.372Z,29
2018-08-08T00:24:47.892Z,29.02
2018-08-08T00:25:28.372Z,29.06
2018-08-08T00:26:08.912Z,29.02
2018-08-08T00:26:49.376Z,28.98
2018-08-08T00:27:29.879Z,29
2018-08-08T00:28:10.378Z,29.09
2018-08-08T00:28:50.886Z,28.96
2018-08-08T00:29:31.432Z,28.86
2018-08-08T00:30:11.909Z,28.89
2018-08-08T00:30:52.416Z,28.89
2018-08-08T00:31:32.916Z,28.89
2018-08-08T00:32:13.406Z,28.92
2018-08-08T00:32:53.842Z,29.08
2018-08-08T00:33:34.363Z,29.05
2018-08-08T00:34:14.845Z,29.02
2018-08-08T00:34:55.341Z,28.89
2018-08-08T00:35:35.835Z,29.08
2018-08-08T00:36:16.351Z,29.04
2018-08-08T00:36:57.064Z,28.93
2018-08-08T00:37:37.529Z,29.04
2018-08-08T00:38:17.993Z,29.06
2018-08-08T00:38:58.494Z,29.06
2018-08-08T00:39:38.986Z,28.95
2018-08-08T00:40:19.584Z,29.06
2018-08-08T00:41:00.065Z,29.05
2018-08-08T00:41:40.558Z,29.08
2018-08-08T00:42:21.067Z,29.11
2018-08-08T00:43:01.541Z,29.06
2018-08-08T00:43:42.070Z,29.05
2018-08-08T00:44:22.528Z,29.08
2018-08-08T00:45:03.027Z,29.02
2018-08-08T00:45:43.529Z,29.04
2018-08-08T00:46:24.024Z,29.15
2018-08-08T00:47:04.536Z,29.09
2018-08-08T00:47:45.002Z,29.15
2018-08-08T00:48:25.583Z,29.14
2018-08-08T00:49:06.004Z,29.16
2018-08-08T00:49:46.542Z,29.16
2018-08-08T00:50:27.031Z,29.14
2018-08-08T00:51:07.531Z,29.14
2018-08-08T00:51:48.012Z,29.12
2018-08-08T00:52:28.527Z,29.12
2018-08-08T00:53:09.004Z,29.18
2018-08-08T00:53:49.528Z,29.12
2018-08-08T00:54:30.027Z,29.12
2018-08-08T00:55:10.474Z,29.15
2018-08-08T00:55:51.037Z,29.12
2018-08-08T00:56:31.564Z,29.09
2018-08-08T00:57:12.061Z,29.04
2018-08-08T00:57:52.580Z,29.16
2018-08-08T00:58:33.046Z,29.11
2018-08-08T00:59:13.551Z,29.16
2018-08-08T00:59:54.023Z,29.11
2018-08-08T01:00:34.529Z,29.15
2018-08-08T01:01:15.010Z,29.16
2018-08-08T01:01:55.457Z,29.12
2018-08-08T01:02:35.982Z,29.12
2018-08-08T01:03:16.508Z,29.15
2018-08-08T01:03:57.002Z,29.18
2018-08-08T01:04:37.478Z,29.08
2018-08-08T01:05:17.990Z,29.11
2018-08-08T01:05:58.476Z,29.09
2018-08-08T01:06:38.948Z,29.11
2018-08-08T01:07:19.498Z,29.14
2018-08-08T01:07:59.952Z,29.05
2018-08-08T01:08:40.607Z,29.05
2018-08-08T01:09:20.969Z,29.11
2018-08-08T01:10:01.479Z,29.02
2018-08-08T01:10:41.979Z,29
2018-08-08T01:11:22.508Z,29.09
2018-08-08T01:12:02.980Z,29.06
2018-08-08T01:12:43.521Z,29.05
2018-08-08T01:13:24.014Z,29.02
2018-08-08T01:14:04.514Z,29.05
2018-08-08T01:14:45.009Z,29.04
2018-08-08T01:15:25.511Z,29.09
2018-08-08T01:16:06.096Z,29.05
2018-08-08T01:16:46.547Z,29.05
2018-08-08T01:17:27.075Z,29.06
2018-08-08T01:18:07.551Z,29.06
2018-08-08T01:18:48.070Z,28.9
2018-08-08T01:19:28.569Z,29.06
2018-08-08T01:20:09.269Z,29.09
2018-08-08T01:20:49.717Z,28.98
2018-08-08T01:21:30.266Z,29.05
2018-08-08T01:22:10.748Z,29.02
2018-08-08T01:22:51.226Z,29.05
2018-08-08T01:23:31.830Z,28.92
2018-08-08T01:24:12.317Z,29.06
2018-08-08T01:24:52.808Z,29.12
2018-08-08T01:25:33.279Z,29.04
2018-08-08T01:26:13.777Z,29.05
2018-08-08T01:26:54.264Z,29.05
2018-08-08T01:27:34.797Z,29.02
2018-08-08T01:28:15.246Z,29.05
2018-08-08T01:28:55.740Z,29.06
2018-08-08T01:29:36.251Z,29.06
2018-08-08T01:30:16.756Z,29.09
2018-08-08T01:30:57.250Z,28.95
2018-08-08T01:31:37.704Z,28.92
2018-08-08T01:33:35.456Z,28.98
2018-08-08T01:34:15.969Z,29.08
2018-08-08T01:34:56.492Z,29.05
2018-08-08T01:35:37.005Z,29.08
2018-08-08T01:36:17.550Z,29.04
2018-08-08T01:36:58.068Z,28.96
2018-08-08T01:37:38.692Z,28.93
2018-08-08T01:38:19.097Z,28.98
2018-08-08T01:38:59.601Z,28.92
2018-08-08T01:39:40.126Z,28.98
2018-08-08T01:40:20.628Z,29
2018-08-08T01:41:01.167Z,29.04
2018-08-08T01:41:41.753Z,28.98
2018-08-08T01:42:22.219Z,29.08
2018-08-08T01:43:02.681Z,28.95
2018-08-08T01:43:43.230Z,29.02
2018-08-08T01:44:23.721Z,29.02
2018-08-08T01:45:04.204Z,29.02
2018-08-08T01:45:45.027Z,28.92
2018-08-08T01:46:25.206Z,29.04
2018-08-08T01:47:05.728Z,29.08
2018-08-08T01:47:46.216Z,29.05
2018-08-08T01:48:26.725Z,29.04
2018-08-08T01:49:07.213Z,29.09
2018-08-08T01:49:47.686Z,28.96
2018-08-08T01:50:28.201Z,29.04
2018-08-08T01:51:08.697Z,28.96
2018-08-08T01:51:49.215Z,28.98
2018-08-08T01:52:29.689Z,28.98
2018-08-08T01:53:10.215Z,29.04
2018-08-08T01:53:50.701Z,28.96
2018-08-08T01:54:31.321Z,29.05
2018-08-08T01:55:11.717Z,29.06
2018-08-08T01:55:52.220Z,28.96
2018-08-08T01:56:32.869Z,28.98
2018-08-08T01:57:13.241Z,28.98
2018-08-08T01:57:53.724Z,28.96
2018-08-08T01:58:34.208Z,28.96
2018-08-08T01:59:14.700Z,28.92
2018-08-08T01:59:55.211Z,28.96
2018-08-08T02:00:35.739Z,28.92
2018-08-08T02:01:16.260Z,28.88
2018-08-08T02:01:56.806Z,28.96
2018-08-08T02:02:37.341Z,28.9
2018-08-08T02:03:17.805Z,28.92
2018-08-08T02:03:58.324Z,28.89
2018-08-08T02:04:38.784Z,28.86
2018-08-08T02:05:19.281Z,28.88
2018-08-08T02:05:59.759Z,28.89
2018-08-08T02:06:40.296Z,28.85
2018-08-08T02:07:20.783Z,28.83
2018-08-08T02:08:01.304Z,28.8
2018-08-08T02:08:41.902Z,28.78
2018-08-08T02:09:22.443Z,28.77
2018-08-08T02:10:02.900Z,28.68
2018-08-08T02:10:43.411Z,28.74
2018-08-08T02:11:23.900Z,28.71
2018-08-08T02:12:04.454Z,28.67
2018-08-08T02:12:44.901Z,28.7
2018-08-08T02:13:25.429Z,28.67
2018-08-08T02:14:05.940Z,28.71
2018-08-08T02:14:46.448Z,28.73
2018-08-08T02:15:26.912Z,28.7
2018-08-08T02:16:07.477Z,28.7
2018-08-08T02:16:47.998Z,28.62
2018-08-08T02:17:28.493Z,28.58
2018-08-08T02:18:08.990Z,28.64
2018-08-08T02:18:49.470Z,28.67
2018-08-08T02:19:29.944Z,28.61
2018-08-08T02:20:10.445Z,28.67
2018-08-08T02:20:50.932Z,28.52
2018-08-08T02:21:31.486Z,28.44
2018-08-08T02:22:11.961Z,28.54
2018-08-08T02:22:52.475Z,28.55
2018-08-08T02:23:32.901Z,28.54
2018-08-08T02:24:13.429Z,28.51
2018-08-08T02:24:53.975Z,28.64
2018-08-08T02:25:34.429Z,28.43
2018-08-08T02:26:14.934Z,28.37
2018-08-08T02:26:55.430Z,28.33
2018-08-08T02:27:35.966Z,28.37
2018-08-08T02:28:16.432Z,28.49
2018-08-08T02:28:56.938Z,28.52
2018-08-08T02:29:37.384Z,28.51
2018-08-08T02:30:17.925Z,28.56
2018-08-08T02:30:58.401Z,28.66
2018-08-08T02:31:38.982Z,28.59
2018-08-08T02:32:19.443Z,28.52
2018-08-08T02:32:59.934Z,28.56
2018-08-08T02:33:40.413Z,28.52
2018-08-08T02:34:20.973Z,28.51
2018-08-08T02:35:01.445Z,28.43
2018-08-08T02:35:41.936Z,28.41
2018-08-08T02:36:22.422Z,28.41
2018-08-08T02:37:02.979Z,28.46
2018-08-08T02:37:43.417Z,28.4
2018-08-08T02:38:23.914Z,28.43
2018-08-08T02:39:04.381Z,28.44
2018-08-08T02:39:44.909Z,28.44
2018-08-08T02:40:25.377Z,28.4
2018-08-08T02:41:05.886Z,28.39
2018-08-08T02:41:46.378Z,28.4
2018-08-08T02:42:26.945Z,28.36
2018-08-08T02:43:07.341Z,28.44
2018-08-08T02:43:47.919Z,28.43
2018-08-08T02:44:28.430Z,28.33
2018-08-08T02:45:08.946Z,28.41
2018-08-08T02:45:49.407Z,28.44
2018-08-08T02:46:29.918Z,28.43
2018-08-08T02:47:10.428Z,28.41
2018-08-08T02:47:50.886Z,28.44
2018-08-08T02:48:31.405Z,28.39
2018-08-08T02:49:11.926Z,28.34
2018-08-08T02:49:52.409Z,28.4
2018-08-08T02:50:32.907Z,28.39
2018-08-08T02:51:13.404Z,28.41
2018-08-08T02:51:53.903Z,28.36
2018-08-08T02:52:34.357Z,28.4
2018-08-08T02:53:14.870Z,28.37
2018-08-08T02:53:55.307Z,28.21
2018-08-08T02:54:36.076Z,28.24
2018-08-08T02:55:16.356Z,28.31
2018-08-08T02:55:56.818Z,28.25
2018-08-08T02:56:37.303Z,28.31
2018-08-08T02:57:17.847Z,28.29
2018-08-08T02:57:58.316Z,28.33
2018-08-08T02:58:38.801Z,28.3
2018-08-08T02:59:19.273Z,28.29
2018-08-08T03:00:00.071Z,28.3
2018-08-08T03:00:40.309Z,28.34
2018-08-08T03:01:20.769Z,28.34
2018-08-08T03:02:01.341Z,28.27
2018-08-08T03:02:41.835Z,28.3
2018-08-08T03:03:22.302Z,28.25
2018-08-08T03:04:02.772Z,28.29
2018-08-08T03:04:43.403Z,28.33
2018-08-08T03:05:23.755Z,28.3
2018-08-08T03:06:04.249Z,28.31
2018-08-08T03:06:44.760Z,28.33
2018-08-08T03:07:25.220Z,28.41
2018-08-08T03:08:05.766Z,28.34
2018-08-08T03:08:46.224Z,28.33
2018-08-08T03:09:26.813Z,28.34
2018-08-08T03:10:07.350Z,28.29
2018-08-08T03:10:47.849Z,28.36
2018-08-08T03:11:28.322Z,28.33
2018-08-08T03:12:08.811Z,28.4
2018-08-08T03:12:49.304Z,28.46
2018-08-08T03:13:29.750Z,28.44
2018-08-08T03:14:10.267Z,28.29
2018-08-08T03:14:50.754Z,28.31
2018-08-08T03:15:31.209Z,28.27
2018-08-08T03:16:11.987Z,28.31
2018-08-08T03:16:52.238Z,28.25
2018-08-08T03:17:32.741Z,28.29
2018-08-08T03:18:13.209Z,28.34
2018-08-08T03:18:53.679Z,28.27
2018-08-08T03:19:34.315Z,28.24
2018-08-08T03:20:14.990Z,28.18
2018-08-08T03:20:55.434Z,28.15
2018-08-08T03:21:35.917Z,28.11
2018-08-08T03:22:16.407Z,28.06
2018-08-08T03:22:56.952Z,28.14
2018-08-08T03:23:37.438Z,28.11
2018-08-08T03:24:17.970Z,28.09
2018-08-08T03:24:58.401Z,28.11
2018-08-08T03:25:39.064Z,28.09
2018-08-08T03:26:19.495Z,28.18
2018-08-08T03:26:59.941Z,28.11
2018-08-08T03:27:40.405Z,28.15
2018-08-08T03:28:20.894Z,28.06
2018-08-08T03:29:01.396Z,28.07
2018-08-08T03:29:41.900Z,27.94
2018-08-08T03:30:22.384Z,28.02
2018-08-08T03:31:02.991Z,27.99
2018-08-08T03:31:43.581Z,28
2018-08-08T03:32:24.058Z,27.94
2018-08-08T03:33:04.577Z,27.96
2018-08-08T03:33:45.036Z,27.94
2018-08-08T03:34:25.619Z,27.84
2018-08-08T03:35:06.112Z,28.03
2018-08-08T03:35:46.615Z,27.96
2018-08-08T03:36:27.219Z,27.93
2018-08-08T03:37:07.698Z,27.97
2018-08-08T03:37:48.226Z,27.94
2018-08-08T03:38:28.704Z,27.94
2018-08-08T03:39:09.205Z,27.96
2018-08-08T03:39:49.699Z,27.88
2018-08-08T03:40:30.208Z,27.92
2018-08-08T03:41:10.716Z,27.92
2018-08-08T03:41:51.222Z,27.87
2018-08-08T03:42:31.807Z,27.79
2018-08-08T03:43:12.299Z,27.85
2018-08-08T03:43:52.734Z,28
2018-08-08T03:44:33.243Z,27.99
2018-08-08T03:45:13.729Z,27.94
2018-08-08T03:45:54.252Z,27.99
2018-08-08T03:46:34.764Z,27.9
2018-08-08T03:47:15.243Z,27.79
2018-08-08T03:47:55.752Z,27.84
2018-08-08T03:48:36.237Z,27.85
2018-08-08T03:49:16.812Z,27.88
2018-08-08T03:49:57.278Z,27.85
2018-08-08T03:50:37.705Z,27.84
2018-08-08T03:51:18.238Z,27.92
2018-08-08T03:51:58.736Z,27.84
2018-08-08T03:52:39.226Z,27.78
2018-08-08T03:53:19.790Z,27.78
2018-08-08T03:54:00.236Z,27.74
2018-08-08T03:54:41.732Z,27.69
2018-08-08T03:55:22.211Z,27.77
2018-08-08T03:56:02.785Z,27.75
2018-08-08T03:56:43.262Z,27.79
2018-08-08T03:57:23.770Z,27.79
2018-08-08T03:58:04.266Z,27.84
2018-08-08T03:58:44.855Z,27.92
2018-08-08T03:59:25.449Z,27.82
2018-08-08T04:00:06.607Z,27.87
2018-08-08T04:00:47.086Z,27.82
2018-08-08T04:01:27.533Z,27.9
2018-08-08T04:02:08.060Z,27.96
2018-08-08T04:02:48.562Z,27.88
2018-08-08T04:03:29.022Z,27.92
2018-08-08T04:04:09.528Z,27.96
2018-08-08T04:04:50.060Z,27.93
2018-08-08T04:05:30.554Z,27.88
2018-08-08T04:06:11.258Z,27.92
2018-08-08T04:06:51.780Z,27.94
2018-08-08T04:07:32.228Z,28.02
2018-08-08T04:08:12.716Z,27.92
2018-08-08T04:08:53.198Z,27.97
2018-08-08T04:09:33.780Z,27.93
2018-08-08T04:10:14.263Z,28.03
2018-08-08T04:10:54.759Z,27.87
2018-08-08T04:11:35.232Z,27.97
2018-08-08T04:12:15.754Z,27.96
2018-08-08T04:12:56.273Z,27.99
2018-08-08T04:13:36.716Z,27.99
2018-08-08T04:14:17.243Z,27.96
2018-08-08T04:14:57.761Z,28.03
2018-08-08T04:15:38.223Z,27.99
2018-08-08T04:16:18.961Z,27.99
2018-08-08T04:16:59.456Z,27.96
2018-08-08T04:17:39.909Z,28.07
2018-08-08T04:18:20.442Z,28
2018-08-08T04:19:00.909Z,28.04
2018-08-08T04:19:41.432Z,28.11
2018-08-08T04:20:21.933Z,28.14
2018-08-08T04:21:02.465Z,28.09
2018-08-08T04:21:42.920Z,28.06
2018-08-08T04:22:23.407Z,28.06
2018-08-08T04:26:55.330Z,28.04
2018-08-08T04:27:35.847Z,28.07
2018-08-08T04:28:16.427Z,27.99
2018-08-08T04:28:56.973Z,28.12
2018-08-08T04:29:37.422Z,28.14
2018-08-08T04:30:17.954Z,28.14
2018-08-08T04:30:58.624Z,28.15
2018-08-08T04:31:39.264Z,28.15
2018-08-08T04:32:20.428Z,28.11
2018-08-08T04:33:00.958Z,28.09
2018-08-08T04:33:41.469Z,28.09
2018-08-08T04:34:22.000Z,28.04
2018-08-08T04:35:02.569Z,28.04
2018-08-08T04:35:43.083Z,28.09
2018-08-08T04:36:23.608Z,28.12
2018-08-08T04:37:04.101Z,28.11
2018-08-08T04:37:44.618Z,28.07
2018-08-08T04:38:25.169Z,28.11
2018-08-08T04:39:05.716Z,28.17
2018-08-08T04:39:46.253Z,28.06
2018-08-08T04:40:26.955Z,28.06
2018-08-08T04:41:07.367Z,28.11
2018-08-08T04:41:47.837Z,28.12
2018-08-08T04:42:28.378Z,28.12
2018-08-08T04:44:21.455Z,28.17
2018-08-08T04:46:09.471Z,28.18
2018-08-08T04:46:49.967Z,28.15
2018-08-08T04:47:30.457Z,28.09
2018-08-08T04:48:10.986Z,28.12
2018-08-08T04:48:51.479Z,28.14
2018-08-08T04:49:31.984Z,28.03
2018-08-08T04:50:12.519Z,28.14
2018-08-08T04:50:53.016Z,28.11
2018-08-08T04:51:33.576Z,28.11
2018-08-08T04:53:46.886Z,28.19
2018-08-08T04:54:27.425Z,28.24
2018-08-08T04:55:07.965Z,28.24
2018-08-08T04:55:48.462Z,28.21
2018-08-08T04:56:28.983Z,28.19
2018-08-08T04:57:09.519Z,28.31
2018-08-08T04:57:50.021Z,28.25
2018-08-08T04:58:30.557Z,28.22
2018-08-08T04:59:11.078Z,28.27
2018-08-08T04:59:51.629Z,28.27
2018-08-08T05:00:32.125Z,28.25
2018-08-08T05:01:12.725Z,28.25
2018-08-08T05:01:53.226Z,28.24
2018-08-08T05:02:33.734Z,28.22
2018-08-08T05:03:14.285Z,28.19
2018-08-08T05:03:54.988Z,28.17
2018-08-08T05:05:53.256Z,28.21
2018-08-08T05:06:33.819Z,28.22
2018-08-08T05:07:14.337Z,28.24
2018-08-08T05:07:54.898Z,28.22
2018-08-08T05:08:36.054Z,28.29
2018-08-08T05:09:16.577Z,28.3
2018-08-08T05:09:57.090Z,28.19
2018-08-08T05:10:37.665Z,28.29
2018-08-08T05:11:18.176Z,28.27
2018-08-08T05:11:58.742Z,28.24
2018-08-08T05:12:39.227Z,28.31
2018-08-08T05:13:19.764Z,28.31
2018-08-08T05:14:00.319Z,28.3
2018-08-08T05:14:40.819Z,28.3
2018-08-08T05:15:21.432Z,28.33
2018-08-08T05:16:01.983Z,28.25
2018-08-08T05:16:42.493Z,28.34
2018-08-08T05:17:23.012Z,28.36
2018-08-08T05:18:03.527Z,28.3
2018-08-08T05:18:43.975Z,28.33
2018-08-08T05:19:24.490Z,28.25
2018-08-08T05:20:05.136Z,28.24
2018-08-08T05:20:45.581Z,28.15
2018-08-08T05:21:26.118Z,28.21
2018-08-08T05:22:06.687Z,28.25
2018-08-08T05:22:47.218Z,28.3
2018-08-08T05:23:27.764Z,28.27
2018-08-08T05:25:05.637Z,28.31
2018-08-08T05:25:46.137Z,28.34
2018-08-08T05:26:26.644Z,28.34
2018-08-08T05:27:07.125Z,28.48
2018-08-08T05:27:47.641Z,28.4
2018-08-08T05:28:28.163Z,28.4
2018-08-08T05:29:08.742Z,28.41
2018-08-08T05:29:49.324Z,28.46
2018-08-08T05:30:29.954Z,28.41
2018-08-08T05:31:10.420Z,28.44
2018-08-08T05:31:50.938Z,28.41
2018-08-08T05:32:31.478Z,28.44
2018-08-08T05:33:11.986Z,28.44
2018-08-08T05:33:52.521Z,28.43
2018-08-08T05:34:32.986Z,28.43
2018-08-08T05:35:13.544Z,28.43
2018-08-08T05:35:54.058Z,28.43
2018-08-08T05:36:34.546Z,28.43
2018-08-08T05:37:15.137Z,28.44
2018-08-08T05:37:55.684Z,28.51
2018-08-08T05:38:36.194Z,28.44
2018-08-08T05:39:16.713Z,28.41
2018-08-08T05:39:57.227Z,28.41
2018-08-08T05:40:37.792Z,28.44
2018-08-08T05:41:18.409Z,28.55
2018-08-08T05:41:58.993Z,28.44
2018-08-08T05:42:39.484Z,28.41
2018-08-08T05:43:20.022Z,28.4
2018-08-08T05:44:00.484Z,28.4
2018-08-08T05:44:40.987Z,28.4
2018-08-08T05:45:21.536Z,28.41
2018-08-08T05:46:02.189Z,28.58
2018-08-08T05:46:42.578Z,28.52
2018-08-08T05:47:23.081Z,28.54
2018-08-08T05:48:03.606Z,28.68
2018-08-08T05:48:44.163Z,28.62
2018-08-08T05:49:24.663Z,28.61
2018-08-08T05:50:05.151Z,28.58
2018-08-08T05:50:45.697Z,28.56
2018-08-08T05:51:26.322Z,28.52
2018-08-08T05:52:06.836Z,28.61
2018-08-08T05:52:47.370Z,28.51
2018-08-08T05:53:27.893Z,28.58
2018-08-08T05:54:08.323Z,28.59
2018-08-08T05:54:48.846Z,28.52
2018-08-08T05:55:29.336Z,28.58
2018-08-08T05:56:09.844Z,28.55
2018-08-08T05:56:50.344Z,28.61
2018-08-08T05:57:30.857Z,28.68
2018-08-08T05:58:11.333Z,28.62
2018-08-08T05:58:52.126Z,28.59
2018-08-08T05:59:32.344Z,28.51
2018-08-08T06:00:12.879Z,28.54
2018-08-08T06:00:53.384Z,28.58
2018-08-08T06:01:33.912Z,28.64
2018-08-08T06:02:14.321Z,28.48
2018-08-08T06:02:54.866Z,28.52
2018-08-08T06:03:35.320Z,28.52
2018-08-08T06:04:15.862Z,28.51
2018-08-08T06:04:56.315Z,28.51
2018-08-08T06:05:36.785Z,28.54
2018-08-08T06:06:17.307Z,28.51
2018-08-08T06:06:57.832Z,28.43
2018-08-08T06:07:38.380Z,28.51
2018-08-08T06:08:18.894Z,28.51
2018-08-08T06:08:59.360Z,28.55
2018-08-08T06:09:39.890Z,28.52
2018-08-08T06:10:20.419Z,28.61
2018-08-08T06:11:01.087Z,28.58
2018-08-08T06:11:41.668Z,28.52
2018-08-08T06:12:22.140Z,28.58
2018-08-08T06:13:02.624Z,28.52
2018-08-08T06:13:43.127Z,28.55
2018-08-08T06:14:23.638Z,28.52
2018-08-08T06:15:04.059Z,28.56
2018-08-08T06:15:44.609Z,28.51
2018-08-08T06:16:25.088Z,28.52
2018-08-08T06:17:05.602Z,28.59
2018-08-08T06:17:46.154Z,28.52
2018-08-08T06:18:26.594Z,28.52
2018-08-08T06:19:07.077Z,28.52
2018-08-08T06:19:47.594Z,28.52
2018-08-08T06:20:28.079Z,28.54
2018-08-08T06:21:08.584Z,28.61
2018-08-08T06:21:49.036Z,28.54
2018-08-08T06:22:29.545Z,28.54
2018-08-08T06:23:10.545Z,28.59
2018-08-08T06:23:51.132Z,28.58
2018-08-08T06:24:31.602Z,28.62
2018-08-08T06:25:12.133Z,28.67
2018-08-08T06:25:52.592Z,28.43
2018-08-08T06:26:33.151Z,28.4
2018-08-08T06:27:13.807Z,28.39
2018-08-08T06:27:54.862Z,28.39
2018-08-08T06:28:34.751Z,28.52
2018-08-08T06:29:15.209Z,28.48
2018-08-08T06:29:55.707Z,28.52
2018-08-08T06:30:36.280Z,28.51
2018-08-08T06:31:16.717Z,28.59
2018-08-08T06:31:57.213Z,28.56
2018-08-08T06:32:37.695Z,28.64
2018-08-08T06:33:18.183Z,28.56
2018-08-08T06:33:58.774Z,28.59
2018-08-08T06:34:39.235Z,28.64
2018-08-08T06:35:19.679Z,28.66
2018-08-08T06:36:00.220Z,28.66
2018-08-08T06:36:42.722Z,28.7
2018-08-08T06:37:23.168Z,28.71
2018-08-08T06:38:03.847Z,28.67
2018-08-08T06:38:44.201Z,28.73
2018-08-08T06:39:24.787Z,28.71
2018-08-08T06:40:05.271Z,28.77
2018-08-08T06:40:45.882Z,28.71
2018-08-08T06:41:26.376Z,28.83
2018-08-08T06:42:06.889Z,28.8
2018-08-08T06:42:47.375Z,28.76
2018-08-08T06:43:27.927Z,28.76
2018-08-08T06:44:08.573Z,28.76
2018-08-08T06:44:49.022Z,28.7
2018-08-08T06:45:29.588Z,28.71
2018-08-08T06:46:10.122Z,28.73
2018-08-08T06:46:51.036Z,28.76
2018-08-08T06:47:31.219Z,28.83
2018-08-08T06:48:12.043Z,28.86
2018-08-08T06:48:52.223Z,28.9
2018-08-08T06:49:33.077Z,28.92
2018-08-08T06:50:13.695Z,28.93
2018-08-08T06:50:54.188Z,28.93
2018-08-08T06:51:34.684Z,28.95
2018-08-08T06:52:15.143Z,29.06
2018-08-08T06:52:55.731Z,28.98
2018-08-08T06:53:36.171Z,28.96
2018-08-08T06:54:17.603Z,29.05
2018-08-08T06:54:58.620Z,29
2018-08-08T06:55:39.145Z,29
2018-08-08T06:56:19.595Z,28.96
2018-08-08T06:57:00.053Z,29.06
2018-08-08T06:57:40.612Z,29.02
2018-08-08T06:58:21.256Z,28.89
2018-08-08T06:59:01.699Z,28.96
2018-08-08T06:59:42.154Z,28.96
2018-08-08T07:00:22.715Z,28.96
2018-08-08T07:01:03.203Z,28.96
2018-08-08T07:01:43.680Z,29
2018-08-08T07:02:24.194Z,29.05
2018-08-08T07:03:04.644Z,28.98
2018-08-08T07:03:45.198Z,29.06
2018-08-08T07:04:25.705Z,29.06
2018-08-08T07:05:06.157Z,29.21
2018-08-08T07:05:46.706Z,29.27
2018-08-08T07:06:27.153Z,29.33
2018-08-08T07:07:07.654Z,29.39
2018-08-08T07:07:48.234Z,29.48
2018-08-08T07:08:28.711Z,29.55
2018-08-08T07:09:09.220Z,29.68
2018-08-08T07:09:50.207Z,29.67
2018-08-08T07:10:30.517Z,29.6
2018-08-08T07:11:11.002Z,29.49
2018-08-08T07:11:51.499Z,29.67
2018-08-08T07:12:32.000Z,29.73
2018-08-08T07:13:12.717Z,29.87
2018-08-08T07:13:53.284Z,29.83
2018-08-08T07:14:33.712Z,29.83
2018-08-08T07:15:14.234Z,29.8
2018-08-08T07:15:54.742Z,29.8
2018-08-08T07:16:35.219Z,29.73
2018-08-08T07:17:15.700Z,29.76
2018-08-08T07:17:56.427Z,29.65
2018-08-08T07:18:36.882Z,29.65
2018-08-08T07:19:17.487Z,29.6
2018-08-08T07:19:58.154Z,29.55
2018-08-08T07:20:38.539Z,29.63
2018-08-08T07:21:19.100Z,29.61
2018-08-08T07:21:59.558Z,29.48
2018-08-08T07:22:40.067Z,29.6
2018-08-08T07:23:20.557Z,29.57
2018-08-08T07:24:01.135Z,29.52
2018-08-08T07:24:41.664Z,29.58
2018-08-08T07:25:22.261Z,29.63
2018-08-08T07:26:02.654Z,29.63
2018-08-08T07:26:43.151Z,29.67
2018-08-08T07:27:23.894Z,29.65
2018-08-08T07:28:04.406Z,29.74
2018-08-08T07:28:44.909Z,29.76
2018-08-08T07:29:25.364Z,29.76
2018-08-08T07:30:05.914Z,29.7
2018-08-08T07:30:46.461Z,29.68
2018-08-08T07:31:26.920Z,29.63
2018-08-08T07:32:07.432Z,29.52
2018-08-08T07:32:47.973Z,29.61
2018-08-08T07:33:28.474Z,29.53
2018-08-08T07:34:08.985Z,29.41
2018-08-08T07:34:49.474Z,29.42
2018-08-08T07:35:29.973Z,29.43
2018-08-08T07:36:10.477Z,29.45
2018-08-08T07:36:50.989Z,29.42
2018-08-08T07:37:31.474Z,29.51
2018-08-08T07:38:11.996Z,29.52
2018-08-08T07:38:52.498Z,29.49
2018-08-08T07:39:32.991Z,29.48
2018-08-08T07:40:13.464Z,29.53
2018-08-08T07:40:54.011Z,29.61
2018-08-08T07:41:34.541Z,29.57
2018-08-08T07:42:15.088Z,29.51
2018-08-08T07:42:55.574Z,29.45
2018-08-08T07:43:36.063Z,29.58
2018-08-08T07:44:16.578Z,29.61
2018-08-08T07:44:57.067Z,29.63
2018-08-08T07:45:37.612Z,29.49
2018-08-08T07:46:18.061Z,29.51
2018-08-08T07:46:58.482Z,29.63
2018-08-08T07:47:38.982Z,29.65
2018-08-08T07:48:19.511Z,29.63
2018-08-08T07:49:00.262Z,29.57
2018-08-08T07:49:40.480Z,29.65
2018-08-08T07:50:20.995Z,29.63
2018-08-08T07:51:01.510Z,29.64
2018-08-08T07:51:42.017Z,29.65
2018-08-08T07:52:22.471Z,29.68
2018-08-08T07:53:03.030Z,29.73
2018-08-08T07:53:43.717Z,29.73
2018-08-08T07:54:24.223Z,29.68
2018-08-08T07:55:04.718Z,29.83
2018-08-08T07:55:45.205Z,29.85
2018-08-08T07:56:25.676Z,29.94
2018-08-08T07:57:06.197Z,30.07
2018-08-08T07:57:46.726Z,30.07
2018-08-08T07:58:27.157Z,30.02
2018-08-08T07:59:07.645Z,30.08
2018-08-08T07:59:48.161Z,30.07
2018-08-08T08:00:28.616Z,30.2
2018-08-08T08:01:09.088Z,30.26
2018-08-08T08:01:49.776Z,30.27
2018-08-08T08:02:30.767Z,30.32
2018-08-08T08:03:11.246Z,30.27
2018-08-08T08:03:51.733Z,30.29
2018-08-08T08:04:32.276Z,30.29
2018-08-08T08:05:12.739Z,30.34
2018-08-08T08:05:53.280Z,30.37
2018-08-08T08:06:33.778Z,30.46
2018-08-08T08:07:14.273Z,30.47
2018-08-08T08:07:54.780Z,30.47
2018-08-08T08:08:35.235Z,30.46
2018-08-08T08:09:15.865Z,30.45
2018-08-08T08:09:56.486Z,30.55
2018-08-08T08:10:36.970Z,30.54
2018-08-08T08:11:17.519Z,30.6
2018-08-08T08:11:57.973Z,30.58
2018-08-08T08:12:38.465Z,30.58
2018-08-08T08:13:18.976Z,30.6
2018-08-08T08:13:59.485Z,30.55
2018-08-08T08:14:40.031Z,30.58
2018-08-08T08:15:20.460Z,30.53
2018-08-08T08:16:00.979Z,30.51
2018-08-08T08:16:41.646Z,30.6
2018-08-08T08:17:22.139Z,30.64
2018-08-08T08:18:02.984Z,30.54
2018-08-08T08:18:43.222Z,30.53
2018-08-08T08:19:23.741Z,30.54
2018-08-08T08:20:04.260Z,30.42
2018-08-08T08:20:44.722Z,30.32
2018-08-08T08:21:25.232Z,30.31
2018-08-08T08:22:05.722Z,30.15
2018-08-08T08:22:46.239Z,30.29
2018-08-08T08:23:26.713Z,30.34
2018-08-08T08:24:07.253Z,30.42
2018-08-08T08:24:47.716Z,30.32
2018-08-08T08:25:28.234Z,30.39
2018-08-08T08:26:08.732Z,30.54
2018-08-08T08:26:49.230Z,30.49
2018-08-08T08:27:29.713Z,30.51
2018-08-08T08:28:10.186Z,30.58
2018-08-08T08:28:50.712Z,30.64
2018-08-08T08:29:31.186Z,30.54
2018-08-08T08:30:11.670Z,30.67
2018-08-08T08:30:52.168Z,30.65
2018-08-08T08:31:32.649Z,30.72
2018-08-08T08:32:13.123Z,30.76
2018-08-08T08:32:53.624Z,30.7
2018-08-08T08:33:34.123Z,30.75
2018-08-08T08:34:14.629Z,30.75
2018-08-08T08:34:55.333Z,30.7
2018-08-08T08:35:35.820Z,30.77
2018-08-08T08:36:16.415Z,30.75
2018-08-08T08:36:57.008Z,30.77
2018-08-08T08:37:37.370Z,30.84
2018-08-08T08:38:17.862Z,30.83
2018-08-08T08:38:58.375Z,30.84
2018-08-08T08:39:38.862Z,30.82
2018-08-08T08:40:19.971Z,30.77
2018-08-08T08:41:00.507Z,30.76
2018-08-08T08:41:40.978Z,30.77
2018-08-08T08:42:21.485Z,30.84
2018-08-08T08:43:02.018Z,30.83
2018-08-08T08:43:42.489Z,30.75
2018-08-08T08:44:22.965Z,30.82
2018-08-08T08:45:03.516Z,30.8
2018-08-08T08:45:43.992Z,30.82
2018-08-08T08:46:24.632Z,30.8
2018-08-08T08:47:05.225Z,30.86
2018-08-08T08:47:45.642Z,30.91
2018-08-08T08:48:26.241Z,30.83
2018-08-08T08:49:06.654Z,30.83
2018-08-08T08:49:47.181Z,30.83
2018-08-08T08:50:27.699Z,30.86
2018-08-08T08:51:08.229Z,30.88
2018-08-08T08:51:48.736Z,30.86
2018-08-08T08:52:29.351Z,30.88
2018-08-08T08:53:09.872Z,30.8
2018-08-08T08:53:50.378Z,30.91
2018-08-08T08:54:31.074Z,30.84
2018-08-08T08:55:11.592Z,30.89